createdAt,value
2023-09-17T00:01:40.814Z,16.01
2023-09-17T00:04:08.624Z,16.01
2023-09-17T00:06:36.379Z,16.00
2023-09-17T00:09:04.809Z,15.90
2023-09-17T00:11:33.872Z,15.76
2023-09-17T00:14:01.527Z,15.73
2023-09-17T00:16:32.455Z,15.70
2023-09-17T00:19:00.700Z,15.70
2023-09-17T00:21:28.321Z,15.84
2023-09-17T00:23:56.006Z,15.80
2023-09-17T00:26:23.714Z,15.86
2023-09-17T00:28:53.508Z,15.85
2023-09-17T00:31:21.297Z,15.71
2023-09-17T00:33:49.207Z,15.67
2023-09-17T00:36:17.054Z,15.71
2023-09-17T00:38:44.613Z,15.61
2023-09-17T00:41:12.273Z,15.55
2023-09-17T00:43:40.002Z,15.53
2023-09-17T00:46:09.537Z,15.47
2023-09-17T00:48:38.438Z,15.45
2023-09-17T00:51:06.601Z,15.43
2023-09-17T00:53:34.798Z,15.38
2023-09-17T00:56:02.783Z,15.25
2023-09-17T00:58:32.978Z,15.26
2023-09-17T01:01:01.973Z,15.27
2023-09-17T01:03:32.301Z,15.10
2023-09-17T01:06:04.732Z,15.01
2023-09-17T01:08:33.113Z,14.89
2023-09-17T01:11:02.522Z,14.96
2023-09-17T01:13:30.524Z,14.88
2023-09-17T01:16:00.405Z,14.98
2023-09-17T01:18:28.823Z,14.95
2023-09-17T01:21:06.156Z,15.00
2023-09-17T01:23:38.952Z,14.94
2023-09-17T01:26:14.525Z,14.87
2023-09-17T01:28:43.707Z,14.91
2023-09-17T01:31:11.896Z,14.90
2023-09-17T01:33:39.566Z,14.91
2023-09-17T01:36:12.301Z,15.01
2023-09-17T01:38:47.210Z,15.05
2023-09-17T01:41:16.663Z,15.01
2023-09-17T01:43:46.840Z,15.00
2023-09-17T01:46:17.537Z,14.99
2023-09-17T01:48:47.772Z,14.97
2023-09-17T01:51:15.779Z,15.01
2023-09-17T01:53:43.906Z,14.97
2023-09-17T01:56:14.364Z,14.97
2023-09-17T01:58:42.079Z,14.94
2023-09-17T02:01:11.414Z,14.92
2023-09-17T02:03:39.200Z,14.96
2023-09-17T02:06:07.010Z,14.88
2023-09-17T02:08:40.278Z,14.92
2023-09-17T02:11:07.882Z,14.94
2023-09-17T02:13:35.574Z,14.91
2023-09-17T02:16:04.018Z,14.92
2023-09-17T02:18:33.111Z,14.98
2023-09-17T02:21:00.752Z,14.84
2023-09-17T02:23:28.368Z,14.78
2023-09-17T02:25:56.014Z,14.82
2023-09-17T02:28:23.774Z,14.87
2023-09-17T02:30:52.900Z,14.90
2023-09-17T02:33:20.509Z,14.96
2023-09-17T02:35:51.570Z,15.01
2023-09-17T02:38:19.409Z,14.99
2023-09-17T02:40:47.060Z,15.00
2023-09-17T02:43:14.866Z,14.95
2023-09-17T02:45:42.985Z,14.97
2023-09-17T02:48:13.012Z,15.03
2023-09-17T02:50:41.572Z,15.04
2023-09-17T02:53:10.611Z,15.00
2023-09-17T02:55:38.249Z,15.04
2023-09-17T02:58:06.099Z,15.01
2023-09-17T03:00:35.283Z,15.02
2023-09-17T03:03:04.258Z,14.97
2023-09-17T03:05:32.030Z,14.98
2023-09-17T03:08:01.741Z,14.93
2023-09-17T03:10:31.075Z,14.97
2023-09-17T03:12:58.898Z,14.92
2023-09-17T03:15:27.303Z,14.86
2023-09-17T03:17:56.439Z,14.89
2023-09-17T03:20:24.150Z,14.77
2023-09-17T03:22:52.061Z,14.59
2023-09-17T03:25:20.105Z,14.46
2023-09-17T03:27:51.013Z,14.37
2023-09-17T03:30:18.633Z,14.19
2023-09-17T03:33:01.879Z,14.21
2023-09-17T03:35:35.093Z,14.31
2023-09-17T03:38:03.078Z,14.20
2023-09-17T03:40:30.919Z,14.16
2023-09-17T03:42:59.908Z,14.04
2023-09-17T03:45:28.208Z,13.98
2023-09-17T03:47:56.022Z,13.98
2023-09-17T03:50:24.307Z,14.10
2023-09-17T03:52:55.295Z,14.12
2023-09-17T03:55:25.201Z,14.15
2023-09-17T03:57:54.155Z,14.27
2023-09-17T04:00:25.892Z,14.21
2023-09-17T04:02:56.054Z,14.15
2023-09-17T04:05:25.119Z,14.08
2023-09-17T04:07:52.868Z,14.09
2023-09-17T04:10:20.981Z,14.15
2023-09-17T04:12:48.691Z,14.19
2023-09-17T04:15:20.162Z,14.18
2023-09-17T04:17:50.915Z,14.19
2023-09-17T04:20:19.758Z,14.22
2023-09-17T04:22:49.972Z,14.19
2023-09-17T04:25:19.722Z,14.27
2023-09-17T04:27:48.972Z,14.12
2023-09-17T04:30:19.816Z,14.01
2023-09-17T04:32:50.482Z,13.91
2023-09-17T04:35:19.508Z,13.86
2023-09-17T04:37:50.205Z,13.79
2023-09-17T04:40:25.829Z,13.68
2023-09-17T04:42:54.176Z,13.66
2023-09-17T04:45:34.620Z,13.65
2023-09-17T04:48:05.987Z,13.75
2023-09-17T04:50:35.035Z,13.76
2023-09-17T04:53:03.190Z,13.77
2023-09-17T04:55:31.235Z,13.86
2023-09-17T04:57:59.122Z,13.93
2023-09-17T05:00:27.046Z,13.85
2023-09-17T05:02:54.792Z,13.85
2023-09-17T05:05:26.460Z,13.84
2023-09-17T05:07:54.827Z,13.91
2023-09-17T05:10:22.869Z,13.96
2023-09-17T05:12:50.537Z,13.98
2023-09-17T05:15:18.377Z,13.98
2023-09-17T05:17:46.035Z,14.01
2023-09-17T05:20:13.815Z,13.99
2023-09-17T05:22:42.747Z,14.00
2023-09-17T05:25:11.647Z,14.08
2023-09-17T05:27:39.483Z,14.07
2023-09-17T05:30:08.985Z,13.99
2023-09-17T05:32:37.045Z,13.96
2023-09-17T05:35:05.459Z,13.93
2023-09-17T05:37:33.165Z,13.94
2023-09-17T05:40:06.536Z,13.88
2023-09-17T05:42:35.109Z,13.94
2023-09-17T05:45:02.967Z,14.01
2023-09-17T05:47:30.926Z,14.11
2023-09-17T05:50:00.402Z,14.09
2023-09-17T05:52:32.339Z,14.12
2023-09-17T05:55:02.000Z,14.19
2023-09-17T05:57:31.266Z,14.23
2023-09-17T05:59:59.208Z,14.26
2023-09-17T06:02:28.416Z,14.35
2023-09-17T06:04:57.246Z,14.41
2023-09-17T06:07:26.034Z,14.39
2023-09-17T06:09:53.695Z,14.44
2023-09-17T06:12:21.323Z,14.50
2023-09-17T06:14:50.468Z,14.57
2023-09-17T06:17:18.237Z,14.61
2023-09-17T06:19:45.894Z,14.66
2023-09-17T06:22:13.595Z,14.70
2023-09-17T06:24:41.342Z,14.80
2023-09-17T06:27:08.995Z,14.83
2023-09-17T06:29:36.648Z,14.91
2023-09-17T06:32:06.283Z,14.96
2023-09-17T06:34:34.192Z,15.04
2023-09-17T06:37:02.335Z,15.04
2023-09-17T06:39:30.020Z,15.08
2023-09-17T06:41:57.809Z,15.13
2023-09-17T06:44:25.437Z,15.16
2023-09-17T06:46:53.202Z,15.22
2023-09-17T06:49:22.287Z,15.26
2023-09-17T06:51:50.171Z,15.27
2023-09-17T06:54:17.776Z,15.30
2023-09-17T06:56:45.428Z,15.36
2023-09-17T06:59:13.115Z,15.44
2023-09-17T07:01:42.936Z,15.49
2023-09-17T07:04:13.235Z,15.56
2023-09-17T07:06:42.499Z,15.62
2023-09-17T07:09:10.142Z,15.71
2023-09-17T07:11:37.736Z,15.76
2023-09-17T07:14:11.089Z,15.83
2023-09-17T07:16:40.025Z,15.90
2023-09-17T07:19:07.772Z,15.96
2023-09-17T07:21:35.353Z,16.04
2023-09-17T07:24:04.942Z,16.11
2023-09-17T07:26:32.592Z,16.20
2023-09-17T07:29:00.287Z,16.31
2023-09-17T07:31:28.014Z,16.39
2023-09-17T07:33:55.766Z,16.50
2023-09-17T07:36:23.503Z,16.63
2023-09-17T07:38:52.782Z,16.75
2023-09-17T07:41:21.700Z,16.87
2023-09-17T07:43:49.407Z,16.97
2023-09-17T07:46:17.273Z,17.02
2023-09-17T07:48:47.382Z,17.08
2023-09-17T07:51:15.087Z,17.17
2023-09-17T07:53:43.004Z,17.22
2023-09-17T07:56:11.486Z,17.30
2023-09-17T07:58:40.473Z,17.32
2023-09-17T08:01:08.180Z,17.38
2023-09-17T08:03:35.956Z,17.45
2023-09-17T08:06:04.193Z,17.60
2023-09-17T08:08:31.875Z,17.74
2023-09-17T08:10:59.521Z,17.87
2023-09-17T08:13:27.400Z,17.97
2023-09-17T08:15:56.448Z,18.07
2023-09-17T08:18:24.085Z,18.16
2023-09-17T08:20:51.615Z,18.25
2023-09-17T08:23:19.592Z,18.35
2023-09-17T08:25:47.373Z,18.42
2023-09-17T08:28:16.538Z,18.46
2023-09-17T08:30:44.210Z,18.49
2023-09-17T08:33:13.156Z,18.59
2023-09-17T08:35:41.033Z,18.66
2023-09-17T08:38:10.240Z,18.80
2023-09-17T08:40:40.464Z,18.92
2023-09-17T08:43:08.180Z,19.09
2023-09-17T08:45:35.932Z,19.24
2023-09-17T08:48:03.881Z,19.39
2023-09-17T08:50:36.621Z,19.55
2023-09-17T08:53:08.725Z,19.71
2023-09-17T08:55:36.796Z,19.85
2023-09-17T08:58:13.629Z,19.97
2023-09-17T09:00:46.865Z,20.03
2023-09-17T09:03:19.445Z,20.00
2023-09-17T09:05:51.779Z,20.04
2023-09-17T09:08:19.547Z,20.07
2023-09-17T09:10:47.354Z,20.10
2023-09-17T09:13:15.297Z,20.10
2023-09-17T09:15:43.270Z,20.16
2023-09-17T09:18:11.023Z,20.22
2023-09-17T09:20:39.274Z,20.29
2023-09-17T09:23:08.636Z,20.34
2023-09-17T09:25:36.851Z,20.40
2023-09-17T09:28:04.852Z,20.43
2023-09-17T09:30:32.980Z,20.44
2023-09-17T09:33:00.940Z,20.46
2023-09-17T09:35:31.208Z,20.43
2023-09-17T09:37:59.156Z,20.41
2023-09-17T09:40:28.200Z,20.42
2023-09-17T09:42:55.989Z,20.48
2023-09-17T09:45:24.550Z,20.56
2023-09-17T09:47:52.939Z,20.67
2023-09-17T09:50:24.435Z,20.78
2023-09-17T09:52:52.295Z,20.84
2023-09-17T09:55:21.314Z,20.92
2023-09-17T09:57:50.402Z,20.98
2023-09-17T10:00:21.405Z,21.01
2023-09-17T10:02:49.328Z,21.04
2023-09-17T10:05:19.678Z,21.07
2023-09-17T10:07:49.282Z,21.10
2023-09-17T10:10:17.100Z,21.11
2023-09-17T10:12:44.813Z,21.18
2023-09-17T10:15:14.941Z,21.14
2023-09-17T10:17:43.253Z,21.13
2023-09-17T10:20:12.768Z,21.13
2023-09-17T10:22:41.606Z,21.21
2023-09-17T10:25:11.200Z,21.24
2023-09-17T10:27:39.503Z,21.24
2023-09-17T10:30:10.486Z,21.30
2023-09-17T10:32:39.451Z,21.31
2023-09-17T10:35:09.213Z,21.33
2023-09-17T10:37:38.970Z,21.37
2023-09-17T10:40:10.726Z,21.43
2023-09-17T10:42:39.485Z,21.49
2023-09-17T10:45:09.837Z,21.60
2023-09-17T10:47:42.073Z,21.74
2023-09-17T10:50:10.947Z,21.91
2023-09-17T10:52:38.599Z,22.06
2023-09-17T10:55:09.059Z,22.09
2023-09-17T10:57:41.589Z,22.23
2023-09-17T11:00:14.843Z,22.38
2023-09-17T11:02:49.482Z,22.45
2023-09-17T11:05:20.618Z,22.53
2023-09-17T11:07:49.551Z,22.53
2023-09-17T11:10:29.517Z,22.64
2023-09-17T11:13:00.244Z,22.72
2023-09-17T11:15:28.115Z,22.84
2023-09-17T11:18:02.649Z,22.96
2023-09-17T11:20:30.417Z,23.06
2023-09-17T11:22:58.495Z,23.20
2023-09-17T11:25:36.965Z,23.15
2023-09-17T11:28:12.569Z,23.12
2023-09-17T11:30:59.601Z,23.19
2023-09-17T11:33:28.985Z,23.24
2023-09-17T11:35:57.976Z,23.26
2023-09-17T11:38:26.484Z,23.41
2023-09-17T11:41:08.099Z,23.54
2023-09-17T11:43:37.694Z,23.67
2023-09-17T11:46:06.952Z,23.81
2023-09-17T11:48:36.823Z,23.81
2023-09-17T11:51:25.294Z,23.97
2023-09-17T11:53:55.396Z,24.01
2023-09-17T11:56:23.336Z,24.12
2023-09-17T11:59:01.783Z,24.09
2023-09-17T12:01:32.162Z,24.06
2023-09-17T12:04:01.745Z,24.07
2023-09-17T12:06:30.152Z,24.16
2023-09-17T12:09:13.048Z,24.18
2023-09-17T12:11:57.118Z,24.20
2023-09-17T12:14:25.376Z,24.29
2023-09-17T12:16:54.615Z,24.34
2023-09-17T12:19:23.788Z,24.16
2023-09-17T12:21:54.677Z,24.16
2023-09-17T12:24:24.696Z,24.10
2023-09-17T12:27:30.808Z,23.95
2023-09-17T12:29:58.630Z,23.87
2023-09-17T12:32:30.966Z,23.88
2023-09-17T12:35:00.005Z,23.90
2023-09-17T12:37:28.453Z,23.87
2023-09-17T12:39:56.322Z,23.93
2023-09-17T12:42:23.957Z,23.81
2023-09-17T12:44:52.373Z,23.82
2023-09-17T12:47:20.769Z,23.81
2023-09-17T12:49:48.680Z,23.68
2023-09-17T12:52:18.175Z,23.75
2023-09-17T12:54:45.890Z,23.89
2023-09-17T12:57:13.558Z,23.98
2023-09-17T12:59:41.947Z,24.01
2023-09-17T13:02:10.352Z,24.05
2023-09-17T13:04:39.545Z,24.10
2023-09-17T13:07:15.453Z,23.95
2023-09-17T13:09:44.945Z,23.97
2023-09-17T13:12:12.874Z,23.86
2023-09-17T13:14:40.741Z,23.86
2023-09-17T13:17:08.609Z,23.83
2023-09-17T13:19:36.365Z,23.82
2023-09-17T13:22:05.215Z,23.78
2023-09-17T13:24:34.361Z,23.81
2023-09-17T13:27:05.270Z,23.78
2023-09-17T13:29:41.505Z,23.63
2023-09-17T13:32:11.355Z,23.51
2023-09-17T13:34:39.660Z,23.58
2023-09-17T13:37:09.359Z,23.53
2023-09-17T13:39:40.115Z,23.45
2023-09-17T13:42:09.670Z,23.42
2023-09-17T13:44:37.342Z,23.29
2023-09-17T13:47:08.057Z,23.16
2023-09-17T13:49:35.662Z,23.15
2023-09-17T13:52:04.346Z,23.08
2023-09-17T13:54:31.912Z,23.08
2023-09-17T13:56:59.590Z,23.08
2023-09-17T13:59:28.559Z,22.90
2023-09-17T14:01:56.224Z,22.90
2023-09-17T14:04:24.207Z,22.83
2023-09-17T14:09:20.353Z,22.70
2023-09-17T14:11:47.999Z,22.64
2023-09-17T14:14:15.635Z,22.58
2023-09-17T14:16:45.339Z,22.47
2023-09-17T14:19:18.605Z,22.45
2023-09-17T14:21:46.434Z,22.41
2023-09-17T14:24:14.120Z,22.42
2023-09-17T14:26:41.780Z,22.39
2023-09-17T14:29:09.507Z,22.36
2023-09-17T14:31:40.139Z,22.33
2023-09-17T14:34:11.813Z,22.32
2023-09-17T14:36:39.382Z,22.22
2023-09-17T14:39:07.558Z,22.20
2023-09-17T14:41:36.370Z,22.15
2023-09-17T14:44:03.989Z,22.17
2023-09-17T14:46:32.863Z,22.14
2023-09-17T14:49:00.486Z,22.11
2023-09-17T14:51:29.403Z,22.13
2023-09-17T14:53:57.005Z,22.16
2023-09-17T14:56:24.591Z,22.13
2023-09-17T14:58:52.687Z,22.13
2023-09-17T15:03:54.473Z,22.22
2023-09-17T15:06:22.198Z,22.29
2023-09-17T15:08:51.539Z,22.35
2023-09-17T15:11:19.318Z,22.33
2023-09-17T15:13:47.941Z,22.36
2023-09-17T15:16:16.434Z,22.35
2023-09-17T15:18:44.070Z,22.36
2023-09-17T15:21:11.759Z,22.44
2023-09-17T15:23:39.319Z,22.47
2023-09-17T15:26:08.357Z,22.54
2023-09-17T15:28:35.943Z,22.57
2023-09-17T15:31:04.674Z,22.70
2023-09-17T15:33:32.510Z,22.77
2023-09-17T15:36:00.289Z,22.76
2023-09-17T15:38:27.825Z,22.74
2023-09-17T15:40:56.218Z,22.76
2023-09-17T15:43:25.644Z,22.84
2023-09-17T15:45:53.331Z,22.82
2023-09-17T15:48:20.918Z,22.76
2023-09-17T15:50:52.417Z,22.78
2023-09-17T15:53:20.311Z,22.77
2023-09-17T15:55:47.922Z,22.74
2023-09-17T15:58:16.914Z,22.76
2023-09-17T16:00:45.903Z,22.71
2023-09-17T16:03:13.632Z,22.77
2023-09-17T16:05:41.973Z,22.87
2023-09-17T16:08:09.664Z,22.95
2023-09-17T16:10:37.616Z,22.97
2023-09-17T16:13:05.586Z,22.97
2023-09-17T16:15:33.501Z,22.89
2023-09-17T16:18:03.681Z,22.83
2023-09-17T16:20:31.412Z,22.80
2023-09-17T16:22:59.170Z,22.79
2023-09-17T16:25:26.865Z,22.86
2023-09-17T16:27:54.439Z,22.87
2023-09-17T16:30:22.258Z,22.90
2023-09-17T16:32:50.005Z,22.88
2023-09-17T16:35:19.365Z,22.88
2023-09-17T16:37:47.461Z,22.86
2023-09-17T16:40:15.130Z,22.88
2023-09-17T16:42:53.847Z,22.85
2023-09-17T16:45:29.841Z,22.87
2023-09-17T16:47:57.497Z,22.82
2023-09-17T16:50:29.394Z,22.77
2023-09-17T16:52:57.362Z,22.69
2023-09-17T16:55:24.963Z,22.62
2023-09-17T16:57:52.603Z,22.52
2023-09-17T17:00:21.483Z,22.42
2023-09-17T17:02:49.221Z,22.38
2023-09-17T17:05:17.159Z,22.32
2023-09-17T17:07:46.192Z,22.26
2023-09-17T17:10:13.920Z,22.17
2023-09-17T17:12:41.707Z,22.15
2023-09-17T17:15:10.016Z,22.04
2023-09-17T17:17:37.754Z,21.96
2023-09-17T17:20:08.105Z,21.93
2023-09-17T17:22:44.182Z,21.81
2023-09-17T17:25:13.831Z,21.76
2023-09-17T17:27:41.739Z,21.72
2023-09-17T17:30:11.336Z,21.61
2023-09-17T17:32:41.677Z,21.53
2023-09-17T17:35:10.307Z,21.40
2023-09-17T17:37:37.949Z,21.40
2023-09-17T17:40:06.399Z,21.34
2023-09-17T17:42:35.414Z,21.29
2023-09-17T17:45:03.677Z,21.23
2023-09-17T17:47:33.597Z,21.17
2023-09-17T17:50:01.522Z,21.12
2023-09-17T17:52:29.296Z,21.07
2023-09-17T17:54:56.952Z,21.04
2023-09-17T17:57:24.729Z,20.98
2023-09-17T17:59:53.644Z,20.95
2023-09-17T18:02:21.804Z,20.93
2023-09-17T18:04:49.549Z,20.90
2023-09-17T18:07:17.216Z,20.88
2023-09-17T18:09:45.181Z,20.89
2023-09-17T18:12:13.712Z,20.87
2023-09-17T18:14:41.451Z,20.83
2023-09-17T18:17:10.557Z,20.79
2023-09-17T18:19:38.304Z,20.77
2023-09-17T18:22:06.102Z,20.74
2023-09-17T18:24:33.715Z,20.70
2023-09-17T18:27:01.360Z,20.66
2023-09-17T18:29:31.346Z,20.62
2023-09-17T18:31:59.263Z,20.58
2023-09-17T18:34:28.687Z,20.55
2023-09-17T18:36:56.559Z,20.53
2023-09-17T18:39:24.230Z,20.51
2023-09-17T18:41:51.840Z,20.46
2023-09-17T18:44:20.019Z,20.43
2023-09-17T18:46:47.747Z,20.38
2023-09-17T18:49:19.926Z,20.38
2023-09-17T18:51:49.457Z,20.35
2023-09-17T18:54:17.285Z,20.35
2023-09-17T18:56:45.210Z,20.32
2023-09-17T18:59:13.127Z,20.28
2023-09-17T19:01:41.315Z,20.25
2023-09-17T19:04:09.055Z,20.21
2023-09-17T19:06:37.493Z,20.18
2023-09-17T19:09:06.864Z,20.13
2023-09-17T19:11:35.294Z,20.08
2023-09-17T19:14:03.268Z,20.07
2023-09-17T19:16:31.616Z,20.07
2023-09-17T19:18:59.256Z,20.04
2023-09-17T19:21:26.987Z,20.03
2023-09-17T19:23:55.327Z,20.00
2023-09-17T19:26:24.386Z,19.99
2023-09-17T19:28:52.011Z,19.97
2023-09-17T19:31:19.752Z,19.92
2023-09-17T19:33:47.833Z,19.89
2023-09-17T19:36:15.525Z,19.89
2023-09-17T19:38:43.414Z,19.85
2023-09-17T19:41:11.145Z,19.89
2023-09-17T19:43:41.881Z,19.87
2023-09-17T19:46:09.680Z,19.88
2023-09-17T19:48:37.434Z,19.91
2023-09-17T19:51:05.082Z,19.90
2023-09-17T19:53:33.640Z,19.90
2023-09-17T19:56:01.229Z,19.90
2023-09-17T19:58:28.997Z,19.87
2023-09-17T20:00:59.221Z,19.88
2023-09-17T20:03:27.088Z,19.86
2023-09-17T20:05:54.892Z,19.85
2023-09-17T20:08:22.657Z,19.83
2023-09-17T20:10:50.301Z,19.84
2023-09-17T20:13:17.933Z,19.85
2023-09-17T20:15:48.102Z,19.80
2023-09-17T20:18:17.111Z,19.79
2023-09-17T20:20:47.405Z,19.81
2023-09-17T20:23:15.737Z,19.82
2023-09-17T20:25:45.547Z,19.86
2023-09-17T20:28:14.708Z,19.90
2023-09-17T20:30:43.178Z,19.93
2023-09-17T20:33:11.135Z,19.90
2023-09-17T20:35:40.633Z,19.91
2023-09-17T20:38:08.463Z,19.91
2023-09-17T20:40:36.235Z,19.92
2023-09-17T20:43:04.305Z,19.93
2023-09-17T20:45:32.094Z,19.93
2023-09-17T20:48:00.065Z,19.96
2023-09-17T20:50:27.700Z,19.95
2023-09-17T20:52:57.361Z,19.96
2023-09-17T20:55:27.672Z,19.97
2023-09-17T20:57:55.488Z,19.97
2023-09-17T21:00:23.190Z,19.99
2023-09-17T21:02:51.140Z,19.98
2023-09-17T21:05:18.806Z,19.98
2023-09-17T21:07:47.106Z,19.98
2023-09-17T21:10:16.130Z,19.97
2023-09-17T21:12:43.706Z,19.97
2023-09-17T21:15:12.387Z,19.95
2023-09-17T21:17:42.654Z,19.92
2023-09-17T21:20:18.722Z,19.92
2023-09-17T21:22:47.349Z,19.93
2023-09-17T21:25:17.467Z,19.90
2023-09-17T21:27:46.821Z,19.86
2023-09-17T21:30:14.957Z,19.87
2023-09-17T21:32:43.910Z,19.83
2023-09-17T21:35:12.792Z,19.82
2023-09-17T21:37:40.609Z,19.83
2023-09-17T21:40:09.466Z,19.80
2023-09-17T21:42:38.809Z,19.80
2023-09-17T21:45:07.728Z,19.78
2023-09-17T21:47:35.475Z,19.75
2023-09-17T21:50:03.455Z,19.72
2023-09-17T21:52:31.397Z,19.71
2023-09-17T21:54:59.521Z,19.70
2023-09-17T21:57:27.516Z,19.66
2023-09-17T21:59:56.533Z,19.66
2023-09-17T22:02:24.793Z,19.65
2023-09-17T22:04:52.542Z,19.66
2023-09-17T22:07:20.247Z,19.63
2023-09-17T22:09:47.983Z,19.60
2023-09-17T22:12:15.717Z,19.59
2023-09-17T22:14:43.390Z,19.58
2023-09-17T22:17:12.610Z,19.56
2023-09-17T22:19:41.729Z,19.54
2023-09-17T22:22:09.754Z,19.54
2023-09-17T22:24:37.359Z,19.52
2023-09-17T22:27:05.590Z,19.48
2023-09-17T22:29:33.334Z,19.49
2023-09-17T22:32:01.023Z,19.51
2023-09-17T22:34:30.108Z,19.46
2023-09-17T22:36:57.881Z,19.43
2023-09-17T22:39:25.466Z,19.40
2023-09-17T22:41:53.521Z,19.39
2023-09-17T22:44:24.650Z,19.36
2023-09-17T22:46:53.107Z,19.35
2023-09-17T22:49:20.816Z,19.34
2023-09-17T22:51:49.824Z,19.32
2023-09-17T22:54:17.483Z,19.28
2023-09-17T22:56:45.140Z,19.27
2023-09-17T22:59:12.737Z,19.23
2023-09-17T23:01:40.737Z,19.20
2023-09-17T23:04:08.776Z,19.18
2023-09-17T23:06:36.509Z,19.17
2023-09-17T23:09:05.515Z,19.14
2023-09-17T23:11:33.252Z,19.13
2023-09-17T23:14:06.562Z,19.11
2023-09-17T23:16:34.682Z,19.08
2023-09-17T23:19:02.475Z,19.04
2023-09-17T23:21:30.136Z,19.03
2023-09-17T23:23:59.253Z,19.02
2023-09-17T23:26:28.928Z,18.99
2023-09-17T23:28:56.765Z,18.97
2023-09-17T23:31:26.078Z,18.94
2023-09-17T23:33:53.700Z,18.93
2023-09-17T23:36:21.516Z,18.91
2023-09-17T23:38:50.970Z,18.89
2023-09-17T23:41:18.860Z,18.84
2023-09-17T23:43:47.848Z,18.83
2023-09-17T23:46:15.656Z,18.81
2023-09-17T23:48:43.344Z,18.79
2023-09-17T23:51:10.973Z,18.79
2023-09-17T23:53:38.602Z,18.77
2023-09-17T23:56:06.168Z,18.75
2023-09-17T23:58:33.753Z,18.73
